Capitol Logistics 7482

Operating for MZN



KSBD
San Bernardino International Airport
San Bernardino, California
KAFW
Fort Worth Alliance Airport
Fort Worth, Texas

Activity Log

Date Flight Route Aircraft Duration
06/10/2021 CPX7482 PSP J212 BXK PXR SJN CNX J74 TXO GREGS9 A30F 2h 24m

Route Details

Aircraft Information
Primary: Boeing 767-300BDSF
Backup: Airbus A300-600F
Route Data
Distance: 1017nm
Duration: 2h 27m
Recm'd Route: PSP T306 BLH J65 CME J166 DUMPS HNKER WESAT2
Origin Wx: KSBD 020620Z AUTO 23003KT 10SM CLR 26/06 A3006 RMK AO2 T02610061
Dest. Wx: KAFW 020553Z 35004KT 10SM SCT080 BKN120 OVC210 23/22 A3005 RMK AO2 RAE0459 SLP159 P0000 60027 T02330222 10239 20233 403330233 56005 $
Notes: